Time;durP1;ratioP1;P1;durP2;ratioP2;P2;SDS_P1;SDS_P2;PMS_P1;PMS_P2;Temp;Humidity;BMP_temperature;BMP_pressure;BME280_temperature;BME280_humidity;BME280_pressure;Samples;Min_cycle;Max_cycle;Signal;HPM_P1;HPM_P2
2020/12/26 00:01:15;;;;;;;25.53;13.30;;;;;;;-1.61;85.90;96159.34;5071062;28;20188;-73
2020/12/26 00:03:41;;;;;;;25.57;12.37;;;;;;;-1.61;85.90;96155.09;5089404;28;20176;-73
2020/12/26 00:06:06;;;;;;;26.60;12.97;;;;;;;-1.60;85.74;96150.81;5057402;28;20630;-74
2020/12/26 00:08:35;;;;;;;20.93;13.07;;;;;;;-1.63;85.64;96150.94;5073817;28;20734;-73
2020/12/26 00:11:01;;;;;;;25.37;12.80;;;;;;;-1.62;85.73;96152.59;5074648;28;20709;-73
2020/12/26 00:13:27;;;;;;;27.63;14.13;;;;;;;-1.65;85.93;96156.09;5074016;28;20211;-73
2020/12/26 00:15:52;;;;;;;20.23;11.73;;;;;;;-1.66;85.63;96162.09;5090188;28;20207;-73
2020/12/26 00:18:17;;;;;;;24.33;13.73;;;;;;;-1.66;85.66;96159.53;5109064;28;20544;-73
2020/12/26 00:20:42;;;;;;;26.73;12.87;;;;;;;-1.63;85.80;96167.06;5090486;28;20496;-73
2020/12/26 00:23:08;;;;;;;26.50;12.50;;;;;;;-1.63;85.59;96161.97;5077432;28;20179;-73
2020/12/26 00:25:33;;;;;;;24.50;12.40;;;;;;;-1.64;85.71;96159.47;5112610;28;20203;-73
2020/12/26 00:27:58;;;;;;;26.80;13.00;;;;;;;-1.59;85.74;96165.22;5094426;28;20212;-73
2020/12/26 00:30:24;;;;;;;29.47;14.17;;;;;;;-1.62;85.46;96168.72;5091109;28;21111;-73
2020/12/26 00:32:49;;;;;;;24.70;13.17;;;;;;;-1.61;85.82;96164.44;5092177;28;20177;-73
2020/12/26 00:35:14;;;;;;;23.60;12.47;;;;;;;-1.63;85.72;96167.06;5073805;28;20215;-73
2020/12/26 00:37:39;;;;;;;30.30;14.30;;;;;;;-1.70;85.52;96170.72;5077377;28;20312;-73
2020/12/26 00:40:05;;;;;;;25.90;12.97;;;;;;;-1.73;85.69;96178.50;5087968;28;20185;-73
2020/12/26 00:42:30;;;;;;;26.40;14.00;;;;;;;-1.77;85.63;96177.78;5094507;28;20708;-73
2020/12/26 00:44:55;;;;;;;23.13;13.40;;;;;;;-1.83;85.59;96180.56;5094052;28;20236;-73
2020/12/26 00:47:21;;;;;;;25.47;14.50;;;;;;;-1.84;85.67;96180.63;5077144;28;20208;-73
2020/12/26 00:49:46;;;;;;;27.67;14.40;;;;;;;-1.90;86.06;96183.38;5093775;28;20195;-73
2020/12/26 00:52:11;;;;;;;25.60;13.93;;;;;;;-1.91;85.60;96182.56;5094154;28;20608;-74
2020/12/26 00:54:36;;;;;;;28.20;13.90;;;;;;;-1.96;85.98;96186.97;5076928;28;20188;-73
2020/12/26 00:57:02;;;;;;;27.13;12.90;;;;;;;-1.96;85.77;96186.13;5094144;28;20176;-74
2020/12/26 00:59:27;;;;;;;26.10;14.17;;;;;;;-2.04;85.82;96192.34;5093702;28;20187;-73
2020/12/26 01:01:56;;;;;;;20.30;10.30;;;;;;;-2.04;85.39;96182.16;5081447;28;20176;-72
2020/12/26 01:04:21;;;;;;;14.93;8.50;;;;;;;-2.01;85.71;96187.16;5071593;28;20233;-73
2020/12/26 01:06:56;;;;;;;24.83;10.77;;;;;;;-2.00;85.99;96193.06;5091610;28;20271;-73
2020/12/26 01:09:24;;;;;;;25.20;11.70;;;;;;;-1.96;86.29;96191.22;5073558;28;20169;-74
2020/12/26 01:11:50;;;;;;;23.73;10.70;;;;;;;-1.94;85.83;96192.00;5073822;28;20214;-73
2020/12/26 01:14:16;;;;;;;17.80;10.60;;;;;;;-1.94;85.85;96194.53;5073317;28;20224;-73
2020/12/26 01:16:41;;;;;;;19.63;9.37;;;;;;;-1.99;84.83;96194.72;5111965;28;20658;-73
2020/12/26 01:19:07;;;;;;;18.97;9.63;;;;;;;-1.95;85.86;96197.97;5097366;28;20178;-73
2020/12/26 01:21:32;;;;;;;18.17;10.13;;;;;;;-1.95;85.52;96205.63;5083849;28;20237;-73
2020/12/26 01:23:58;;;;;;;20.07;10.93;;;;;;;-1.97;85.12;96200.59;5103613;28;20249;-73
2020/12/26 01:26:23;;;;;;;26.63;12.10;;;;;;;-1.96;85.29;96209.06;5077760;28;20817;-73
2020/12/26 01:28:48;;;;;;;22.37;11.60;;;;;;;-1.96;85.46;96202.25;5095362;28;20508;-74
2020/12/26 01:31:14;;;;;;;21.13;11.37;;;;;;;-1.97;85.76;96213.31;5059810;28;20183;-73
2020/12/26 01:33:39;;;;;;;22.13;11.63;;;;;;;-1.94;85.40;96220.00;5077226;28;20286;-73
2020/12/26 01:36:04;;;;;;;24.80;12.70;;;;;;;-1.94;86.27;96225.94;5060647;28;20203;-73
2020/12/26 01:38:30;;;;;;;19.13;11.00;;;;;;;-1.95;85.88;96225.97;5095299;28;20179;-73
2020/12/26 01:40:55;;;;;;;23.67;11.80;;;;;;;-1.92;85.79;96228.44;5095364;28;20182;-73
2020/12/26 01:43:20;;;;;;;21.67;12.63;;;;;;;-1.93;85.54;96230.16;5079075;28;20287;-73
2020/12/26 01:45:46;;;;;;;31.03;13.83;;;;;;;-1.89;85.68;96231.69;5083838;28;20293;-73
2020/12/26 01:48:15;;;;;;;25.47;12.60;;;;;;;-1.86;85.21;96226.47;5094099;28;20583;-73
2020/12/26 01:50:41;;;;;;;22.33;12.77;;;;;;;-1.88;86.16;96233.34;5077069;28;20191;-72
2020/12/26 01:53:06;;;;;;;30.67;13.30;;;;;;;-1.89;85.68;96229.13;5088492;28;20660;-73
2020/12/26 01:55:31;;;;;;;24.30;13.10;;;;;;;-1.89;86.05;96235.94;5076175;28;20704;-73
2020/12/26 01:57:57;;;;;;;26.73;12.30;;;;;;;-1.91;85.98;96237.72;5095177;28;20205;-73
2020/12/26 02:00:22;;;;;;;21.50;12.77;;;;;;;-1.94;86.38;96242.91;5093778;28;20268;-73
2020/12/26 02:02:49;;;;;;;27.93;13.47;;;;;;;-2.03;86.28;96233.91;5094928;28;20635;-73
2020/12/26 02:05:15;;;;;;;28.53;14.20;;;;;;;-2.08;86.40;96236.59;5075586;28;20815;-73
2020/12/26 02:07:40;;;;;;;27.53;14.53;;;;;;;-2.11;86.36;96239.28;5078294;28;20180;-73
2020/12/26 02:10:06;;;;;;;23.37;13.43;;;;;;;-2.09;86.35;96249.41;5094756;28;20184;-73
2020/12/26 02:12:31;;;;;;;23.73;12.87;;;;;;;-2.14;86.50;96249.53;5093613;28;20172;-73
2020/12/26 02:14:56;;;;;;;26.87;12.77;;;;;;;-2.19;86.73;96238.72;5077291;28;20217;-73
2020/12/26 02:17:26;;;;;;;27.93;13.83;;;;;;;-2.19;86.53;96238.72;5104371;28;20236;-74
2020/12/26 02:19:51;;;;;;;28.93;15.37;;;;;;;-2.22;86.46;96238.78;5113625;28;20196;-73
2020/12/26 02:22:17;;;;;;;28.57;13.37;;;;;;;-2.25;86.87;96241.47;5096816;28;20203;-73
2020/12/26 02:24:42;;;;;;;28.17;14.17;;;;;;;-2.26;86.49;96242.34;5108098;28;20210;-73
2020/12/26 02:27:07;;;;;;;27.00;13.57;;;;;;;-2.29;86.84;96252.63;5094473;28;20169;-73
2020/12/26 02:29:32;;;;;;;32.90;14.80;;;;;;;-2.32;86.59;96255.28;5079102;28;20218;-73
2020/12/26 02:31:58;;;;;;;27.63;13.83;;;;;;;-2.33;86.63;96251.91;5114957;28;20581;-73
2020/12/26 02:34:23;;;;;;;30.80;14.23;;;;;;;-2.34;86.87;96254.50;5114522;28;20199;-73
2020/12/26 02:36:48;;;;;;;29.03;15.63;;;;;;;-2.32;86.95;96262.91;5096982;28;20191;-73
2020/12/26 02:39:14;;;;;;;28.83;14.63;;;;;;;-2.25;87.02;96250.81;5059176;28;20293;-73
2020/12/26 02:41:39;;;;;;;35.27;15.03;;;;;;;-2.20;86.82;96254.88;5076264;28;20276;-73
2020/12/26 02:44:04;;;;;;;29.00;14.90;;;;;;;-2.14;86.75;96257.19;5076213;28;20195;-73
2020/12/26 02:46:30;;;;;;;32.83;14.43;;;;;;;-2.11;86.53;96263.91;5073911;28;20303;-73
2020/12/26 02:48:55;;;;;;;30.10;15.13;;;;;;;-2.14;86.94;96252.09;5078614;28;20220;-73
2020/12/26 02:51:20;;;;;;;30.73;14.23;;;;;;;-2.23;86.74;96249.88;5079372;28;20171;-73
2020/12/26 02:53:46;;;;;;;32.83;15.67;;;;;;;-2.20;86.83;96241.31;5096196;28;20698;-74
2020/12/26 02:56:11;;;;;;;27.07;13.93;;;;;;;-2.22;86.99;96243.88;5096104;28;20200;-73
2020/12/26 02:58:39;;;;;;;33.23;14.60;;;;;;;-2.20;86.65;96249.78;5077846;28;20180;-74
2020/12/26 03:01:04;;;;;;;26.20;13.70;;;;;;;-2.24;86.74;96248.19;5075637;28;20172;-73
2020/12/26 03:03:29;;;;;;;29.77;14.57;;;;;;;-2.26;86.93;96255.06;5058901;28;20191;-74
2020/12/26 03:05:55;;;;;;;26.87;14.70;;;;;;;-2.32;87.03;96257.81;5058924;28;20200;-74
2020/12/26 03:08:20;;;;;;;27.57;15.70;;;;;;;-2.31;86.70;96250.13;5091566;28;20182;-74
2020/12/26 03:10:45;;;;;;;29.77;15.23;;;;;;;-2.30;87.21;96254.34;5093418;28;20210;-74
2020/12/26 03:13:10;;;;;;;30.87;14.83;;;;;;;-2.26;86.79;96249.97;5075541;28;20176;-74
2020/12/26 03:15:36;;;;;;;32.77;16.90;;;;;;;-2.25;86.71;96245.72;5075273;28;20603;-74
2020/12/26 03:18:01;;;;;;;29.13;16.10;;;;;;;-2.19;86.57;96253.16;5074269;28;20188;-73
2020/12/26 03:20:26;;;;;;;27.17;15.67;;;;;;;-2.19;86.91;96256.53;5077170;28;20610;-74
2020/12/26 03:22:52;;;;;;;30.43;15.37;;;;;;;-2.19;86.87;96248.88;5095515;28;20183;-73
2020/12/26 03:25:17;;;;;;;27.93;14.67;;;;;;;-2.11;86.59;96264.72;5113901;28;20605;-74
2020/12/26 03:27:42;;;;;;;30.40;14.27;;;;;;;-2.09;86.32;96262.94;5095718;28;20179;-73
2020/12/26 03:30:08;;;;;;;31.80;15.13;;;;;;;-2.09;86.84;96269.75;5077178;28;20584;-73
2020/12/26 03:32:35;;;;;;;30.93;14.67;;;;;;;-2.08;86.12;96268.88;5101339;28;20643;-73
2020/12/26 03:35:00;;;;;;;27.77;15.23;;;;;;;-2.08;86.23;96261.22;5075107;28;20279;-74
2020/12/26 03:37:25;;;;;;;29.80;15.77;;;;;;;-2.03;86.38;96265.28;5075078;28;20267;-73
2020/12/26 03:39:51;;;;;;;29.53;14.37;;;;;;;-1.99;86.47;96266.00;5072787;28;20180;-73
2020/12/26 03:42:16;;;;;;;32.10;15.27;;;;;;;-1.94;86.64;96274.31;5092828;28;20172;-73
2020/12/26 03:44:41;;;;;;;29.40;15.77;;;;;;;-1.92;86.68;96274.25;5092992;28;20274;-73
2020/12/26 03:47:09;;;;;;;35.37;15.50;;;;;;;-1.89;86.24;96267.31;5074853;28;20669;-73
2020/12/26 03:49:35;;;;;;;25.87;14.67;;;;;;;-1.88;86.39;96279.16;5074573;28;20187;-73
2020/12/26 03:52:00;;;;;;;24.20;13.30;;;;;;;-1.85;86.39;96279.06;5089256;28;20199;-73
2020/12/26 03:54:26;;;;;;;26.93;13.13;;;;;;;-1.77;86.24;96281.31;5093284;28;20214;-74
2020/12/26 03:56:51;;;;;;;22.77;14.03;;;;;;;-1.79;86.21;96275.47;5113314;28;20182;-73
2020/12/26 03:59:17;;;;;;;21.10;12.57;;;;;;;-1.85;86.14;96275.69;5077523;28;20183;-74
2020/12/26 04:01:43;;;;;;;25.60;13.47;;;;;;;-1.84;86.13;96269.72;5081129;28;20244;-73
2020/12/26 04:04:09;;;;;;;27.70;13.27;;;;;;;-1.81;85.85;96275.53;5074911;28;20534;-73
2020/12/26 04:06:34;;;;;;;24.63;13.37;;;;;;;-1.83;85.72;96269.66;5057844;28;20203;-73
2020/12/26 04:08:59;;;;;;;20.93;12.87;;;;;;;-1.86;85.84;96272.28;5092334;28;20522;-73
2020/12/26 04:11:25;;;;;;;30.70;13.80;;;;;;;-1.84;85.98;96265.47;5055645;28;20195;-73
2020/12/26 04:13:50;;;;;;;23.80;12.40;;;;;;;-1.85;85.84;96271.44;5051330;28;20208;-73
2020/12/26 04:16:16;;;;;;;25.30;12.23;;;;;;;-1.85;86.05;96274.00;5057610;28;20208;-74
2020/12/26 04:18:58;;;;;;;22.50;11.77;;;;;;;-1.81;85.85;96267.06;5074322;28;20172;-73
2020/12/26 04:21:24;;;;;;;20.37;11.77;;;;;;;-1.80;85.74;96273.81;5058231;28;20187;-73
2020/12/26 04:23:50;;;;;;;19.43;11.83;;;;;;;-1.83;85.97;96277.31;5090117;28;20231;-73
2020/12/26 04:26:16;;;;;;;19.37;11.83;;;;;;;-1.83;85.56;96276.47;5109571;28;20201;-73
2020/12/26 04:28:41;;;;;;;24.53;12.53;;;;;;;-1.81;85.71;96279.78;5112300;28;20187;-73
2020/12/26 04:31:07;;;;;;;24.83;13.00;;;;;;;-1.83;86.26;96282.41;5094323;28;20261;-73
2020/12/26 04:33:32;;;;;;;24.17;14.33;;;;;;;-1.82;86.10;96284.06;5082013;28;20294;-73
2020/12/26 04:35:57;;;;;;;28.90;12.97;;;;;;;-1.80;85.84;96284.00;5073809;28;20200;-73
2020/12/26 04:38:23;;;;;;;25.67;12.20;;;;;;;-1.80;85.97;96284.00;5074076;28;20185;-73
2020/12/26 04:40:48;;;;;;;25.63;13.27;;;;;;;-1.80;86.13;96282.28;5057012;28;20185;-73
2020/12/26 04:43:14;;;;;;;23.23;13.77;;;;;;;-1.80;85.68;96281.44;5072583;28;20177;-73
2020/12/26 04:45:40;;;;;;;23.93;12.47;;;;;;;-1.81;86.05;96288.25;5073653;28;20206;-73
2020/12/26 04:48:09;;;;;;;23.17;13.13;;;;;;;-1.85;85.92;96294.34;5073976;28;20594;-73
2020/12/26 04:50:35;;;;;;;17.23;11.27;;;;;;;-1.83;85.99;96291.75;5073728;28;20208;-73
2020/12/26 04:53:02;;;;;;;22.20;12.03;;;;;;;-1.87;85.96;96291.00;5073753;28;20183;-73
2020/12/26 04:55:32;;;;;;;21.17;12.30;;;;;;;-1.89;86.01;96289.41;5089542;28;20735;-73
2020/12/26 04:58:08;;;;;;;20.10;12.00;;;;;;;-1.92;86.07;96289.53;5094950;28;20194;-73
2020/12/26 05:00:34;;;;;;;21.67;11.77;;;;;;;-1.92;85.97;96292.06;5056822;28;20232;-73
2020/12/26 05:03:07;;;;;;;24.63;12.00;;;;;;;-1.94;86.19;96307.41;5091770;28;20176;-73
2020/12/26 05:05:33;;;;;;;22.80;12.90;;;;;;;-1.93;85.88;96308.22;5089589;28;20286;-73
2020/12/26 05:07:58;;;;;;;21.03;11.30;;;;;;;-1.97;86.00;96302.41;5056658;28;20213;-73
2020/12/26 05:10:24;;;;;;;15.93;11.37;;;;;;;-1.97;86.22;96304.13;5091633;28;20183;-73
2020/12/26 05:12:49;;;;;;;16.90;10.60;;;;;;;-2.03;85.37;96306.00;5073637;28;20543;-73
2020/12/26 05:15:14;;;;;;;18.93;9.43;;;;;;;-2.02;85.45;96302.56;5090279;28;20220;-73
2020/12/26 05:17:40;;;;;;;19.47;9.37;;;;;;;-2.21;85.45;96301.53;5091316;28;20240;-73
2020/12/26 05:20:06;;;;;;;20.60;10.47;;;;;;;-2.26;85.65;96308.50;5059643;28;20629;-74
2020/12/26 05:22:32;;;;;;;16.37;9.47;;;;;;;-2.31;85.58;96301.00;5077224;28;20186;-74
2020/12/26 05:25:08;;;;;;;15.87;10.13;;;;;;;-2.34;85.73;96295.19;5079455;28;20701;-73
2020/12/26 05:27:33;;;;;;;17.67;9.90;;;;;;;-2.40;85.78;96295.41;5073556;28;20256;-74
2020/12/26 05:29:59;;;;;;;23.83;11.10;;;;;;;-2.50;85.97;96296.59;5073192;28;20211;-74
2020/12/26 05:32:25;;;;;;;29.00;15.37;;;;;;;-2.52;85.96;96286.47;5073546;28;20183;-74
2020/12/26 05:34:51;;;;;;;22.23;12.53;;;;;;;-2.66;85.94;96288.63;5071189;28;20226;-73
2020/12/26 05:37:19;;;;;;;22.77;11.63;;;;;;;-2.68;85.77;96280.22;5057141;28;20657;-74
2020/12/26 05:39:44;;;;;;;22.60;13.07;;;;;;;-2.71;85.84;96280.31;5111672;28;20207;-73
2020/12/26 05:42:17;;;;;;;17.43;10.70;;;;;;;-2.79;85.39;96269.56;5093589;28;20182;-74
2020/12/26 05:44:43;;;;;;;21.43;11.87;;;;;;;-2.85;85.72;96283.31;5076579;28;20175;-74
2020/12/26 05:47:08;;;;;;;25.00;12.73;;;;;;;-2.89;85.70;96276.66;5069882;28;20247;-74
2020/12/26 05:49:38;;;;;;;25.93;13.17;;;;;;;-2.96;85.51;96272.66;5089411;28;20182;-74
2020/12/26 05:52:10;;;;;;;24.13;12.53;;;;;;;-3.00;85.85;96273.63;5073294;28;20712;-74
2020/12/26 05:54:37;;;;;;;24.33;11.87;;;;;;;-2.93;85.45;96281.00;5091252;28;20579;-75
2020/12/26 05:57:12;;;;;;;23.07;12.20;;;;;;;-2.99;85.46;96280.38;5072558;28;20718;-74
2020/12/26 05:59:48;;;;;;;18.63;10.47;;;;;;;-3.00;85.46;96281.25;5076196;28;20257;-74
2020/12/26 06:02:17;;;;;;;16.30;10.00;;;;;;;-3.03;85.54;96283.88;5093558;28;20204;-74
2020/12/26 06:05:04;;;;;;;15.67;10.13;;;;;;;-2.98;85.26;96289.66;5114685;28;20624;-74
2020/12/26 06:07:30;;;;;;;19.97;10.23;;;;;;;-3.03;85.27;96291.50;5088083;28;20583;-74
2020/12/26 06:09:57;;;;;;;22.93;11.17;;;;;;;-3.04;85.17;96287.31;5083044;28;20206;-74
2020/12/26 06:12:24;;;;;;;17.00;10.57;;;;;;;-3.05;85.84;96288.19;5101289;28;20642;-73
2020/12/26 06:14:50;;;;;;;19.97;10.00;;;;;;;-3.05;85.38;96294.09;5094762;28;20382;-73
2020/12/26 06:17:24;;;;;;;14.07;9.10;;;;;;;-3.01;85.74;96297.38;5091350;28;20202;-73
2020/12/26 06:19:54;;;;;;;17.93;10.07;;;;;;;-3.01;85.64;96304.97;5087952;28;20260;-74
2020/12/26 06:22:19;;;;;;;14.57;8.97;;;;;;;-2.96;86.00;96308.22;5094849;28;20173;-74
2020/12/26 06:24:45;;;;;;;14.23;9.27;;;;;;;-2.95;85.27;96308.19;5076559;28;20202;-74
2020/12/26 06:27:12;;;;;;;17.63;9.53;;;;;;;-2.92;85.26;96305.53;5076366;28;20397;-74
2020/12/26 06:29:38;;;;;;;15.20;8.60;;;;;;;-2.91;85.52;96308.94;5092030;28;20275;-74
2020/12/26 06:32:06;;;;;;;20.37;8.87;;;;;;;-2.87;85.57;96300.31;5079481;28;20211;-74
2020/12/26 06:34:32;;;;;;;13.67;8.37;;;;;;;-2.80;85.04;96308.59;5096407;28;20268;-74
2020/12/26 06:36:58;;;;;;;16.93;9.00;;;;;;;-2.76;85.06;96308.44;5096713;28;20177;-74
2020/12/26 06:39:32;;;;;;;15.47;9.47;;;;;;;-2.81;85.37;96319.63;5081563;28;20185;-74
2020/12/26 06:42:15;;;;;;;20.77;9.73;;;;;;;-2.76;85.38;96317.75;5076245;28;20546;-74
2020/12/26 06:44:43;;;;;;;17.03;8.90;;;;;;;-2.73;85.24;96307.53;5076085;28;20168;-74
2020/12/26 06:47:08;;;;;;;11.10;8.10;;;;;;;-2.64;84.90;96307.22;5059396;28;20274;-74
2020/12/26 06:49:33;;;;;;;18.13;8.07;;;;;;;-2.66;85.11;96308.97;5090690;28;20215;-74
2020/12/26 06:51:59;;;;;;;19.23;8.77;;;;;;;-2.66;85.42;96314.03;5089030;28;20184;-74
2020/12/26 06:54:45;;;;;;;16.87;9.00;;;;;;;-2.68;85.18;96313.28;5075850;28;20269;-74
2020/12/26 06:57:36;;;;;;;18.37;8.47;;;;;;;-2.66;84.83;96311.50;5079559;28;20199;-73
2020/12/26 07:00:03;;;;;;;16.47;8.50;;;;;;;-2.63;84.53;96311.44;5090518;28;20186;-73
2020/12/26 07:02:28;;;;;;;16.97;9.03;;;;;;;-2.64;85.11;96308.06;5078085;28;20181;-73
2020/12/26 07:04:54;;;;;;;13.37;9.50;;;;;;;-2.64;85.03;96313.13;5096071;28;20380;-74
2020/12/26 07:07:36;;;;;;;14.97;8.80;;;;;;;-2.62;84.52;96319.00;5114163;28;20177;-74
2020/12/26 07:10:01;;;;;;;16.00;8.83;;;;;;;-2.63;84.65;96313.97;5095766;28;20539;-73
2020/12/26 07:12:41;;;;;;;12.03;8.50;;;;;;;-2.59;84.60;96311.25;5093580;28;20198;-73
2020/12/26 07:15:06;;;;;;;16.93;8.73;;;;;;;-2.53;83.85;96306.88;5074448;28;20297;-73
2020/12/26 07:17:32;;;;;;;15.63;8.77;;;;;;;-2.48;84.75;96307.53;5075577;28;20735;-73
2020/12/26 07:19:58;;;;;;;13.43;7.73;;;;;;;-2.52;84.72;96313.63;5075072;28;20183;-73
2020/12/26 07:22:25;;;;;;;13.63;8.90;;;;;;;-2.53;84.36;96312.78;5086020;28;20203;-74
2020/12/26 07:25:07;;;;;;;16.07;8.50;;;;;;;-2.48;84.22;96302.44;5078355;28;20207;-73
2020/12/26 07:27:35;;;;;;;12.23;7.87;;;;;;;-2.37;84.02;96318.22;5095668;28;20177;-74
2020/12/26 07:30:07;;;;;;;14.30;7.70;;;;;;;-2.42;84.46;96305.63;5095327;28;20196;-75
2020/12/26 07:32:38;;;;;;;16.97;8.20;;;;;;;-2.32;83.73;96316.31;5103075;28;20191;-74
2020/12/26 07:35:12;;;;;;;12.50;6.97;;;;;;;-2.39;83.67;96317.41;5100309;28;20211;-73
2020/12/26 07:37:45;;;;;;;9.83;6.90;;;;;;;-2.28;83.36;96315.34;5095269;28;20553;-75
2020/12/26 07:40:16;;;;;;;14.20;7.30;;;;;;;-2.27;82.99;96309.38;5113350;28;20638;-75
2020/12/26 07:42:42;;;;;;;12.47;8.00;;;;;;;-2.30;83.21;96301.84;5090681;28;20183;-74
2020/12/26 07:45:15;;;;;;;12.23;7.63;;;;;;;-2.27;83.32;96296.66;5074654;28;20225;-74
2020/12/26 07:47:42;;;;;;;13.57;7.53;;;;;;;-2.26;82.87;96298.31;5075050;28;20183;-74
2020/12/26 07:50:11;;;;;;;12.20;7.13;;;;;;;-2.25;82.47;96294.06;5074724;28;20254;-74
2020/12/26 07:52:37;;;;;;;12.37;6.40;;;;;;;-2.19;82.18;96293.88;5074963;28;20228;-74
2020/12/26 07:55:03;;;;;;;12.10;6.80;;;;;;;-2.21;80.74;96288.81;5063178;28;20214;-74
2020/12/26 07:57:29;;;;;;;11.60;6.50;;;;;;;-2.22;80.62;96291.41;5103461;28;20247;-74
2020/12/26 07:59:54;;;;;;;9.80;6.40;;;;;;;-2.24;80.95;96286.38;5077860;28;20664;-74
2020/12/26 08:02:20;;;;;;;9.00;6.30;;;;;;;-2.17;79.77;96290.38;5094940;28;20238;-74
2020/12/26 08:04:46;;;;;;;10.07;6.27;;;;;;;-2.05;79.47;96284.84;5102236;28;20200;-74
2020/12/26 08:07:13;;;;;;;7.43;5.77;;;;;;;-1.86;79.18;96279.94;5074118;28;20172;-74
2020/12/26 08:09:38;;;;;;;9.00;5.40;;;;;;;-1.89;78.74;96284.31;5073163;28;20195;-74
2020/12/26 08:12:07;;;;;;;9.80;5.57;;;;;;;-1.82;79.29;96284.06;5074239;28;20582;-74
2020/12/26 08:14:33;;;;;;;10.73;6.17;;;;;;;-1.83;80.04;96284.94;5091366;28;20211;-75
2020/12/26 08:16:59;;;;;;;8.07;5.80;;;;;;;-1.86;80.24;96290.13;5099004;28;20368;-75
2020/12/26 08:19:25;;;;;;;11.27;6.90;;;;;;;-1.80;79.49;96281.44;5094614;28;20237;-74
2020/12/26 08:21:57;;;;;;;8.93;7.27;;;;;;;-1.73;78.94;96285.44;5076922;28;20175;-74
2020/12/26 08:24:23;;;;;;;10.13;5.83;;;;;;;-1.79;78.38;96289.03;5073413;28;20206;-75
2020/12/26 08:26:49;;;;;;;9.83;6.33;;;;;;;-1.70;79.09;96290.41;5090747;28;20541;-75
2020/12/26 08:29:15;;;;;;;9.77;5.73;;;;;;;-1.67;78.70;96295.41;5073943;28;20195;-73
2020/12/26 08:31:44;;;;;;;7.30;5.20;;;;;;;-1.48;78.14;96286.19;5074224;28;20176;-72
2020/12/26 08:34:17;;;;;;;10.43;6.30;;;;;;;-1.58;78.35;96292.53;5089961;28;20208;-73
2020/12/26 08:36:53;;;;;;;8.87;6.63;;;;;;;-1.55;78.97;96283.94;5067213;28;20237;-72
2020/12/26 08:39:19;;;;;;;11.30;6.80;;;;;;;-1.48;78.04;96288.75;5071803;28;20195;-74
2020/12/26 08:41:45;;;;;;;34.83;18.17;;;;;;;-1.25;78.02;96294.69;5090729;28;20204;-74
2020/12/26 08:44:12;;;;;;;12.53;8.70;;;;;;;-1.31;77.58;96290.69;5074090;28;20217;-73
2020/12/26 08:46:47;;;;;;;11.57;9.50;;;;;;;-1.16;78.10;96291.78;5069150;28;20204;-73
2020/12/26 08:49:13;;;;;;;13.20;9.53;;;;;;;-1.14;78.14;96295.13;5082023;28;20232;-73
2020/12/26 08:51:40;;;;;;;22.93;14.97;;;;;;;-1.36;78.38;96296.81;5094080;28;20179;-73
2020/12/26 08:54:06;;;;;;;10.10;7.17;;;;;;;-1.34;77.87;96300.97;5093886;28;20269;-73
2020/12/26 08:56:36;;;;;;;11.33;6.57;;;;;;;-1.31;78.15;96300.88;5074666;28;20202;-73
2020/12/26 08:59:01;;;;;;;11.13;6.13;;;;;;;-1.34;78.49;96310.31;5071968;28;20272;-73
2020/12/26 09:01:27;;;;;;;10.17;6.17;;;;;;;-1.31;78.47;96311.06;5092681;28;20216;-73
2020/12/26 09:03:52;;;;;;;10.03;5.37;;;;;;;-1.25;77.65;96312.53;5094025;28;20642;-73
2020/12/26 09:06:29;;;;;;;6.27;4.63;;;;;;;-1.33;76.17;96317.91;5094021;28;20717;-74
2020/12/26 09:08:54;;;;;;;10.53;5.53;;;;;;;-1.26;76.78;96323.63;5087027;28;20180;-73
2020/12/26 09:11:28;;;;;;;9.77;4.70;;;;;;;-1.47;77.29;96326.06;5091741;28;20176;-74
2020/12/26 09:13:53;;;;;;;8.53;5.00;;;;;;;-1.39;77.41;96322.41;5073758;28;20203;-74
2020/12/26 09:16:18;;;;;;;9.10;5.33;;;;;;;-1.40;75.95;96326.69;5091639;28;20209;-74
2020/12/26 09:18:46;;;;;;;14.50;7.60;;;;;;;-1.39;77.12;96332.63;5072286;28;20188;-74
2020/12/26 09:21:25;;;;;;;12.83;7.20;;;;;;;-1.40;76.60;96336.06;5073568;28;20187;-74
2020/12/26 09:23:53;;;;;;;9.77;5.77;;;;;;;-1.40;76.80;96336.06;5073580;28;20197;-72
2020/12/26 09:26:27;;;;;;;13.40;7.13;;;;;;;-1.48;77.08;96337.16;5073483;28;20210;-72
2020/12/26 09:28:54;;;;;;;9.93;5.97;;;;;;;-1.21;76.89;96342.94;5071137;28;20188;-72
2020/12/26 09:31:25;;;;;;;9.77;5.97;;;;;;;-1.04;76.36;96344.88;5089885;28;20594;-72
2020/12/26 09:33:55;;;;;;;18.80;9.97;;;;;;;-0.93;75.70;96347.00;5056666;28;20848;-72
2020/12/26 09:36:22;;;;;;;18.17;10.10;;;;;;;-0.95;75.69;96353.91;5073072;28;20693;-73
2020/12/26 09:38:49;;;;;;;10.03;7.03;;;;;;;-0.91;75.90;96353.69;5074544;28;20183;-73
2020/12/26 09:41:15;;;;;;;14.27;8.90;;;;;;;-0.92;76.20;96349.50;5059495;28;20250;-73
2020/12/26 09:43:42;;;;;;;18.00;11.07;;;;;;;-0.76;75.65;96348.91;5080420;28;20272;-73
2020/12/26 09:46:07;;;;;;;8.20;6.23;;;;;;;-0.51;75.59;96352.16;5097542;28;20196;-73
2020/12/26 09:48:33;;;;;;;7.73;5.67;;;;;;;-0.62;75.02;96338.97;5097828;28;20198;-73
2020/12/26 09:50:59;;;;;;;8.57;6.67;;;;;;;-0.53;75.41;96345.44;5080600;28;20187;-73
2020/12/26 09:53:24;;;;;;;9.10;5.80;;;;;;;-0.57;75.42;96353.22;5103603;28;20274;-73
2020/12/26 09:55:49;;;;;;;10.23;5.93;;;;;;;-0.37;75.59;96346.50;5115559;28;20575;-73
2020/12/26 09:58:14;;;;;;;9.87;7.43;;;;;;;-0.29;75.49;96350.41;5115611;28;20190;-74
2020/12/26 10:00:40;;;;;;;11.30;8.03;;;;;;;-0.42;75.46;96344.16;5112914;28;20183;-74
2020/12/26 10:03:05;;;;;;;8.83;6.03;;;;;;;-0.47;76.25;96347.75;5075987;28;20246;-74
2020/12/26 10:05:30;;;;;;;7.07;5.93;;;;;;;-0.35;75.77;96345.56;5114281;28;20737;-74
2020/12/26 10:07:56;;;;;;;12.53;6.73;;;;;;;-0.56;76.78;96341.31;5115436;28;20176;-74
2020/12/26 10:10:21;;;;;;;9.17;6.20;;;;;;;-0.42;76.26;96341.59;5079936;28;20744;-74
2020/12/26 10:12:47;;;;;;;8.43;5.77;;;;;;;-0.41;76.21;96338.16;5081632;28;20173;-74
2020/12/26 10:15:12;;;;;;;7.73;5.93;;;;;;;-0.43;76.56;96339.94;5059394;28;20231;-74
2020/12/26 10:17:37;;;;;;;9.57;5.43;;;;;;;-0.41;76.52;96343.25;5076627;28;20212;-74
2020/12/26 10:20:03;;;;;;;8.57;5.67;;;;;;;-0.38;76.67;96342.28;5094532;28;20245;-74
2020/12/26 10:22:28;;;;;;;7.90;5.40;;;;;;;-0.18;75.78;96341.47;5091218;28;20212;-73
2020/12/26 10:24:53;;;;;;;7.53;5.27;;;;;;;-0.36;75.55;96337.94;5094937;28;20361;-74
2020/12/26 10:27:19;;;;;;;7.83;6.30;;;;;;;-0.36;75.82;96338.78;5094797;28;20184;-75
2020/12/26 10:29:44;;;;;;;6.70;5.07;;;;;;;-0.37;75.51;96339.66;5059415;28;20207;-74
2020/12/26 10:32:10;;;;;;;7.80;4.47;;;;;;;-0.36;75.39;96340.50;5077266;28;20212;-74
2020/12/26 10:34:36;;;;;;;9.40;5.83;;;;;;;-0.37;75.74;96342.22;5073846;28;20224;-74
2020/12/26 10:37:02;;;;;;;11.23;8.70;;;;;;;-0.16;74.86;96332.88;5065670;28;20230;-74
2020/12/26 10:39:27;;;;;;;16.17;9.83;;;;;;;-0.26;74.43;96329.03;5075476;28;20263;-74
2020/12/26 10:41:53;;;;;;;9.00;6.10;;;;;;;-0.14;73.83;96327.69;5076353;28;20177;-74
2020/12/26 10:44:18;;;;;;;7.47;5.87;;;;;;;-0.25;73.46;96335.81;5092169;28;20711;-74
2020/12/26 10:46:43;;;;;;;11.27;6.73;;;;;;;-0.10;73.99;96334.31;5079059;28;20199;-74
2020/12/26 10:49:09;;;;;;;14.27;8.30;;;;;;;-0.05;73.62;96332.41;5079083;28;20205;-74
2020/12/26 10:51:34;;;;;;;12.97;7.27;;;;;;;0.01;73.41;96327.06;5100744;28;20821;-74
2020/12/26 10:54:00;;;;;;;7.93;5.07;;;;;;;-0.14;73.93;96317.50;5058443;28;20682;-74
2020/12/26 10:56:25;;;;;;;6.27;5.13;;;;;;;-0.07;73.34;96326.56;5083444;28;20205;-74
2020/12/26 10:58:50;;;;;;;7.40;5.63;;;;;;;-0.10;73.49;96319.84;5075908;28;20176;-73
2020/12/26 11:01:16;;;;;;;10.77;7.40;;;;;;;-0.01;73.45;96306.69;5076001;28;20233;-74
2020/12/26 11:03:41;;;;;;;8.80;6.67;;;;;;;0.08;73.39;96308.00;5075997;28;20180;-74
2020/12/26 11:06:09;;;;;;;10.53;7.63;;;;;;;0.05;73.70;96313.25;5074227;28;20204;-74
2020/12/26 11:08:34;;;;;;;12.30;9.20;;;;;;;0.14;73.23;96312.88;5078499;28;20183;-74
2020/12/26 11:10:59;;;;;;;12.83;7.37;;;;;;;0.17;73.50;96305.06;5096309;28;20176;-79
2020/12/26 11:13:25;;;;;;;14.77;10.77;;;;;;;0.16;72.60;96305.97;5095958;28;20191;-74
2020/12/26 11:15:50;;;;;;;11.53;8.70;;;;;;;0.22;72.14;96305.72;5105042;28;20240;-75
2020/12/26 11:18:15;;;;;;;9.73;6.30;;;;;;;0.23;73.34;96304.81;5094180;28;20180;-75
2020/12/26 11:20:41;;;;;;;7.33;5.23;;;;;;;0.24;72.92;96300.53;5078763;28;20296;-75